createdAt,value
2023-05-03T00:02:27.276Z,100043.47
2023-05-03T00:04:55.581Z,100036.75
2023-05-03T00:07:23.514Z,100046.03
2023-05-03T00:09:51.360Z,100036.72
2023-05-03T00:12:20.914Z,100034.97
2023-05-03T00:14:48.814Z,100041.72
2023-05-03T00:17:16.699Z,100035.25
2023-05-03T00:19:45.126Z,100033.63
2023-05-03T00:22:13.063Z,100041.16
2023-05-03T00:24:40.918Z,100026.00
2023-05-03T00:27:08.889Z,100019.31
2023-05-03T00:29:38.386Z,100024.25
2023-05-03T00:32:06.552Z,100012.44
2023-05-03T00:34:34.459Z,100023.28
2023-05-03T00:37:02.444Z,100018.97
2023-05-03T00:39:31.914Z,100025.69
2023-05-03T00:42:00.192Z,100025.63
2023-05-03T00:44:28.716Z,100028.88
2023-05-03T00:46:58.435Z,100029.75
2023-05-03T00:49:26.769Z,100033.22
2023-05-03T00:51:55.103Z,100029.97
2023-05-03T00:54:23.984Z,100025.78
2023-05-03T00:56:52.654Z,100030.00
2023-05-03T00:59:21.338Z,100024.19
2023-05-03T01:01:50.891Z,100022.50
2023-05-03T01:04:21.645Z,100014.00
2023-05-03T01:06:59.014Z,100003.63
2023-05-03T01:09:36.385Z,100000.16
2023-05-03T01:12:15.389Z,100000.66
2023-05-03T01:14:50.905Z,100000.72
2023-05-03T01:17:25.409Z,100004.88
2023-05-03T01:19:59.127Z,100003.19
2023-05-03T01:22:38.301Z,99994.91
2023-05-03T01:25:10.851Z,100007.56
2023-05-03T01:27:41.155Z,100003.38
2023-05-03T01:30:11.006Z,100003.47
2023-05-03T01:32:51.568Z,100008.63
2023-05-03T01:35:26.274Z,100008.84
2023-05-03T01:37:56.978Z,100014.06
2023-05-03T01:40:28.703Z,100006.59
2023-05-03T01:42:58.233Z,100004.09
2023-05-03T01:45:26.911Z,100007.44
2023-05-03T01:47:57.591Z,99994.81
2023-05-03T01:50:25.642Z,99985.44
2023-05-03T01:52:53.642Z,99972.72
2023-05-03T01:55:21.612Z,99985.06
2023-05-03T01:57:50.864Z,99979.78
2023-05-03T02:00:19.943Z,99981.34
2023-05-03T02:02:47.894Z,99978.84
2023-05-03T02:05:15.935Z,99982.25
2023-05-03T02:07:43.777Z,99969.53
2023-05-03T02:10:14.777Z,99975.41
2023-05-03T02:12:43.200Z,99976.25
2023-05-03T02:15:14.060Z,99982.94
2023-05-03T02:17:45.577Z,99977.88
2023-05-03T02:20:13.801Z,99986.25
2023-05-03T02:22:42.225Z,99984.56
2023-05-03T02:25:10.548Z,99984.69
2023-05-03T02:27:38.831Z,99988.34
2023-05-03T02:30:08.145Z,99989.47
2023-05-03T02:32:42.800Z,99992.22
2023-05-03T02:35:11.751Z,99988.09
2023-05-03T02:37:39.638Z,99989.03
2023-05-03T02:40:12.607Z,99990.78
2023-05-03T02:42:42.008Z,99990.78
2023-05-03T02:45:10.811Z,99991.63
2023-05-03T02:47:38.889Z,99995.06
2023-05-03T02:50:09.340Z,99997.66
2023-05-03T02:52:40.345Z,99997.66
2023-05-03T02:55:08.930Z,99999.34
2023-05-03T02:57:37.586Z,99994.34
2023-05-03T03:00:10.337Z,100004.50
2023-05-03T03:02:38.447Z,100003.66
2023-05-03T03:05:09.263Z,100001.94
2023-05-03T03:07:39.184Z,100006.06
2023-05-03T03:10:08.325Z,100005.91
2023-05-03T03:12:37.181Z,100004.09
2023-05-03T03:15:09.171Z,100005.75
2023-05-03T03:17:39.016Z,100006.50
2023-05-03T03:20:12.913Z,100011.44
2023-05-03T03:22:45.566Z,100013.09
2023-05-03T03:25:13.768Z,100012.06
2023-05-03T03:27:41.776Z,100011.03
2023-05-03T03:30:10.569Z,100009.38
2023-05-03T03:32:47.148Z,100014.50
2023-05-03T03:35:25.297Z,100012.88
2023-05-03T03:37:53.691Z,100014.56
2023-05-03T03:40:23.667Z,100023.06
2023-05-03T03:42:54.242Z,100024.81
2023-05-03T03:45:22.152Z,100023.91
2023-05-03T03:47:52.274Z,100015.25
2023-05-03T03:50:25.837Z,100010.88
2023-05-03T03:52:53.750Z,100018.38
2023-05-03T03:55:22.243Z,100029.34
2023-05-03T03:57:53.527Z,100029.22
2023-05-03T04:00:23.002Z,100037.44
2023-05-03T04:02:59.318Z,100038.19
2023-05-03T04:05:28.831Z,100039.75
2023-05-03T04:07:56.821Z,100036.38
2023-05-03T04:10:26.585Z,100041.38
2023-05-03T04:12:55.671Z,100038.13
2023-05-03T04:15:23.988Z,100043.09
2023-05-03T04:17:52.854Z,100045.50
2023-05-03T04:20:21.555Z,100042.97
2023-05-03T04:22:52.313Z,100048.06
2023-05-03T04:25:25.717Z,100051.47
2023-05-03T04:27:59.998Z,100056.41
2023-05-03T04:30:29.847Z,100051.25
2023-05-03T04:33:01.335Z,100049.59
2023-05-03T04:35:31.315Z,100058.13
2023-05-03T04:38:04.611Z,100059.00
2023-05-03T04:40:34.699Z,100061.63
2023-05-03T04:43:07.711Z,100061.59
2023-05-03T04:45:39.450Z,100059.75
2023-05-03T04:48:10.248Z,100072.97
2023-05-03T04:50:38.253Z,100071.94
2023-05-03T04:53:10.756Z,100071.81
2023-05-03T04:55:42.765Z,100078.34
2023-05-03T04:58:11.423Z,100076.75
2023-05-03T05:00:40.658Z,100080.97
2023-05-03T05:03:14.062Z,100074.31
2023-05-03T05:05:42.154Z,100077.63
2023-05-03T05:08:13.540Z,100076.00
2023-05-03T05:10:49.053Z,100084.44
2023-05-03T05:13:21.749Z,100076.03
2023-05-03T05:15:49.706Z,100088.72
2023-05-03T05:18:18.484Z,100087.31
2023-05-03T05:20:47.281Z,100082.56
2023-05-03T05:23:18.074Z,100084.34
2023-05-03T05:25:48.702Z,100084.16
2023-05-03T05:28:16.906Z,100095.63
2023-05-03T05:30:47.475Z,100092.16
2023-05-03T05:33:16.789Z,100093.66
2023-05-03T05:35:48.120Z,100087.75
2023-05-03T05:38:18.537Z,100090.94
2023-05-03T05:40:46.516Z,100086.84
2023-05-03T05:43:14.536Z,100095.16
2023-05-03T05:45:45.843Z,100090.28
2023-05-03T05:48:15.351Z,100094.41
2023-05-03T05:50:44.656Z,100090.88
2023-05-03T05:53:14.658Z,100096.69
2023-05-03T05:55:50.092Z,100102.63
2023-05-03T05:58:18.052Z,100097.66
2023-05-03T06:00:51.185Z,100098.44
2023-05-03T06:03:19.638Z,100111.03
2023-05-03T06:05:50.405Z,100099.94
2023-05-03T06:08:18.315Z,100107.66
2023-05-03T06:10:46.238Z,100117.78
2023-05-03T06:13:15.545Z,100117.03
2023-05-03T06:15:44.689Z,100117.84
2023-05-03T06:18:12.669Z,100111.22
2023-05-03T06:20:41.031Z,100131.34
2023-05-03T06:23:08.920Z,100117.19
2023-05-03T06:25:39.252Z,100120.59
2023-05-03T06:28:07.451Z,100125.69
2023-05-03T06:30:38.188Z,100129.91
2023-05-03T06:33:14.588Z,100132.47
2023-05-03T06:35:44.329Z,100131.78
2023-05-03T06:38:12.880Z,100140.44
2023-05-03T06:40:41.375Z,100134.13
2023-05-03T06:43:09.430Z,100136.13
2023-05-03T06:45:45.303Z,100148.97
2023-05-03T06:48:13.334Z,100145.81
2023-05-03T06:50:41.297Z,100143.53
2023-05-03T06:53:09.865Z,100144.44
2023-05-03T06:55:37.784Z,100152.81
2023-05-03T06:58:10.008Z,100146.94
2023-05-03T07:00:39.164Z,100143.69
2023-05-03T07:03:08.562Z,100148.09
2023-05-03T07:05:36.684Z,100154.66
2023-05-03T07:08:04.882Z,100161.50
2023-05-03T07:10:32.731Z,100162.38
2023-05-03T07:13:00.629Z,100162.25
2023-05-03T07:15:28.462Z,100162.78
2023-05-03T07:17:56.369Z,100166.78
2023-05-03T07:20:26.362Z,100172.28
2023-05-03T07:22:54.226Z,100165.94
2023-05-03T07:25:22.172Z,100169.09
2023-05-03T07:27:50.251Z,100183.94
2023-05-03T07:30:18.808Z,100180.41
2023-05-03T07:32:46.967Z,100183.59
2023-05-03T07:35:16.723Z,100179.44
2023-05-03T07:37:46.005Z,100187.69
2023-05-03T07:40:14.075Z,100183.41
2023-05-03T07:42:42.027Z,100187.50
2023-05-03T07:45:10.984Z,100194.88
2023-05-03T07:47:40.174Z,100190.63
2023-05-03T07:50:09.325Z,100184.38
2023-05-03T07:52:38.130Z,100197.09
2023-05-03T07:55:08.833Z,100196.97
2023-05-03T07:57:36.825Z,100192.69
2023-05-03T08:00:06.321Z,100201.03
2023-05-03T08:02:40.607Z,100201.28
2023-05-03T08:05:09.936Z,100200.50
2023-05-03T08:07:38.023Z,100204.63
2023-05-03T08:10:08.522Z,100203.00
2023-05-03T08:12:37.437Z,100202.38
2023-05-03T08:15:07.002Z,100212.00
2023-05-03T08:17:41.390Z,100199.88
2023-05-03T08:20:10.732Z,100202.59
2023-05-03T08:22:40.515Z,100211.81
2023-05-03T08:25:11.232Z,100215.09
2023-05-03T08:27:40.074Z,100210.84
2023-05-03T08:30:09.535Z,100212.72
2023-05-03T08:32:37.566Z,100223.72
2023-05-03T08:35:07.503Z,100217.84
2023-05-03T08:37:41.719Z,100220.44
2023-05-03T08:40:13.787Z,100226.56
2023-05-03T08:42:42.687Z,100221.44
2023-05-03T08:45:12.813Z,100230.81
2023-05-03T08:47:41.779Z,100226.50
2023-05-03T08:50:11.016Z,100234.94
2023-05-03T08:52:40.756Z,100241.22
2023-05-03T08:55:09.237Z,100238.88
2023-05-03T08:57:38.766Z,100241.41
2023-05-03T09:00:10.602Z,100225.50
2023-05-03T09:02:39.886Z,100241.78
2023-05-03T09:05:35.829Z,100237.72
2023-05-03T09:08:05.484Z,100240.34
2023-05-03T09:10:34.124Z,100245.78
2023-05-03T09:13:04.005Z,100246.81
2023-05-03T09:15:32.489Z,100247.00
2023-05-03T09:18:16.085Z,100240.28
2023-05-03T09:20:51.389Z,100246.16
2023-05-03T09:23:29.732Z,100239.59
2023-05-03T09:25:58.711Z,100234.69
2023-05-03T09:28:28.168Z,100234.00
2023-05-03T09:31:07.115Z,100243.41
2023-05-03T09:33:35.095Z,100232.75
2023-05-03T09:36:04.691Z,100244.03
2023-05-03T09:38:34.834Z,100248.31
2023-05-03T09:41:02.984Z,100239.28
2023-05-03T09:43:32.484Z,100244.53
2023-05-03T09:46:10.989Z,100242.97
2023-05-03T09:48:39.273Z,100240.22
2023-05-03T09:51:08.278Z,100244.28
2023-05-03T09:53:38.260Z,100243.44
2023-05-03T09:56:09.070Z,100237.31
2023-05-03T09:58:39.107Z,100246.63
2023-05-03T10:01:07.917Z,100247.53
2023-05-03T10:03:40.919Z,100246.66
2023-05-03T10:06:20.769Z,100228.16
2023-05-03T10:08:51.494Z,100245.16
2023-05-03T10:11:19.695Z,100241.66
2023-05-03T10:13:49.105Z,100239.78
2023-05-03T10:16:25.057Z,100233.22
2023-05-03T10:18:57.646Z,100231.03
2023-05-03T10:21:34.549Z,100238.56
2023-05-03T10:24:13.075Z,100231.34
2023-05-03T10:26:46.861Z,100233.75
2023-05-03T10:29:54.812Z,100232.16
2023-05-03T10:32:30.681Z,100235.53
2023-05-03T10:35:00.689Z,100233.72
2023-05-03T10:37:31.724Z,100226.16
2023-05-03T10:40:07.080Z,100225.63
2023-05-03T10:42:34.972Z,100231.63
2023-05-03T10:45:04.910Z,100233.28
2023-05-03T10:47:33.058Z,100224.16
2023-05-03T10:50:26.682Z,100225.13
2023-05-03T10:52:54.913Z,100229.66
2023-05-03T10:55:25.926Z,100224.78
2023-05-03T10:57:58.902Z,100221.44
2023-05-03T11:00:37.473Z,100218.09
2023-05-03T11:03:12.646Z,100224.81
2023-05-03T11:05:41.095Z,100223.94
2023-05-03T11:08:10.496Z,100218.00
2023-05-03T11:10:38.495Z,100218.06
2023-05-03T11:13:06.677Z,100223.94
2023-05-03T11:15:36.359Z,100217.69
2023-05-03T11:18:05.972Z,100222.59
2023-05-03T11:20:34.310Z,100221.63
2023-05-03T11:23:02.764Z,100222.44
2023-05-03T11:25:30.901Z,100223.22
2023-05-03T11:27:58.772Z,100228.34
2023-05-03T11:30:27.695Z,100237.38
2023-05-03T11:32:57.282Z,100227.13
2023-05-03T11:35:26.967Z,100235.63
2023-05-03T11:37:54.911Z,100229.69
2023-05-03T11:40:23.026Z,100226.25
2023-05-03T11:42:55.963Z,100233.63
2023-05-03T11:45:25.701Z,100230.91
2023-05-03T11:47:54.784Z,100231.63
2023-05-03T11:50:45.597Z,100238.28
2023-05-03T11:53:14.008Z,100229.09
2023-05-03T11:55:43.293Z,100234.34
2023-05-03T11:58:15.646Z,100234.34
2023-05-03T12:00:45.259Z,100236.00
2023-05-03T12:03:18.466Z,100235.88
2023-05-03T12:05:49.751Z,100238.22
2023-05-03T12:08:21.075Z,100236.38
2023-05-03T12:10:53.473Z,100231.53
2023-05-03T12:13:29.893Z,100229.19
2023-05-03T12:16:11.065Z,100213.03
2023-05-03T12:18:56.116Z,100235.72
2023-05-03T12:23:57.770Z,100219.25
2023-05-03T12:26:27.310Z,100227.59
2023-05-03T12:28:56.864Z,100230.88
2023-05-03T12:31:28.634Z,100222.38
2023-05-03T12:34:20.120Z,100227.50
2023-05-03T12:36:48.767Z,100220.84
2023-05-03T12:39:20.185Z,100231.91
2023-05-03T12:42:06.135Z,100218.28
2023-05-03T12:44:35.690Z,100230.84
2023-05-03T12:47:04.386Z,100219.84
2023-05-03T12:49:32.965Z,100220.69
2023-05-03T12:52:34.764Z,100214.78
2023-05-03T12:54:54.119Z,100218.19
2023-05-03T12:57:24.570Z,100216.66
2023-05-03T13:00:01.907Z,100220.94
2023-05-03T13:05:11.891Z,100210.91
2023-05-03T13:07:55.764Z,100219.44
2023-05-03T13:10:24.575Z,100206.00
2023-05-03T13:12:54.162Z,100210.13
2023-05-03T13:15:25.263Z,100204.03
2023-05-03T13:17:54.379Z,100207.53
2023-05-03T13:20:22.627Z,100200.88
2023-05-03T13:22:52.009Z,100214.44
2023-05-03T13:25:19.933Z,100201.66
2023-05-03T13:27:50.323Z,100205.81
2023-05-03T13:30:18.268Z,100202.41
2023-05-03T13:32:46.274Z,100198.22
2023-05-03T13:35:14.436Z,100200.63
2023-05-03T13:37:42.340Z,100202.94
2023-05-03T13:40:14.590Z,100197.16
2023-05-03T13:42:42.596Z,100193.16
2023-05-03T13:45:11.425Z,100202.41
2023-05-03T13:47:59.467Z,100190.44
2023-05-03T13:50:30.051Z,100194.63
2023-05-03T13:52:58.015Z,100194.59
2023-05-03T13:55:27.650Z,100198.84
2023-05-03T13:57:55.603Z,100191.97
2023-05-03T14:00:23.912Z,100196.81
2023-05-03T14:02:52.619Z,100191.56
2023-05-03T14:05:20.911Z,100198.28
2023-05-03T14:07:48.798Z,100187.34
2023-05-03T14:10:16.871Z,100189.84
2023-05-03T14:12:46.306Z,100189.84
2023-05-03T14:15:14.992Z,100185.69
2023-05-03T14:17:43.580Z,100191.59
2023-05-03T14:20:12.382Z,100193.25
2023-05-03T14:22:40.445Z,100194.91
2023-05-03T14:25:09.637Z,100188.16
2023-05-03T14:27:37.616Z,100193.06
2023-05-03T14:30:10.456Z,100188.03
2023-05-03T14:32:38.422Z,100193.19
2023-05-03T14:35:07.521Z,100181.34
2023-05-03T14:37:36.697Z,100194.94
2023-05-03T14:40:05.828Z,100191.53
2023-05-03T14:42:33.945Z,100187.31
2023-05-03T14:45:02.309Z,100185.59
2023-05-03T14:47:34.391Z,100201.69
2023-05-03T14:50:02.707Z,100208.66
2023-05-03T14:52:30.841Z,100203.66
2023-05-03T14:54:58.716Z,100205.41
2023-05-03T14:57:26.675Z,100205.50
2023-05-03T14:59:54.780Z,100212.09
2023-05-03T15:02:22.962Z,100201.78
2023-05-03T15:04:52.547Z,100210.22
2023-05-03T15:07:20.887Z,100207.09
2023-05-03T15:09:48.846Z,100206.47
2023-05-03T15:12:17.380Z,100210.00
2023-05-03T15:14:45.301Z,100212.75
2023-05-03T15:17:13.405Z,100207.66
2023-05-03T15:19:41.693Z,100207.69
2023-05-03T15:22:11.033Z,100211.09
2023-05-03T15:24:39.031Z,100208.59
2023-05-03T15:27:07.532Z,100211.22
2023-05-03T15:29:35.939Z,100207.75
2023-05-03T15:32:03.895Z,100204.25
2023-05-03T15:34:33.004Z,100209.22
2023-05-03T15:37:00.943Z,100199.16
2023-05-03T15:39:30.173Z,100204.94
2023-05-03T15:41:58.082Z,100205.75
2023-05-03T15:44:25.914Z,100213.28
2023-05-03T15:46:53.895Z,100199.69
2023-05-03T15:49:22.424Z,100199.69
2023-05-03T15:51:50.241Z,100202.19
2023-05-03T15:54:18.765Z,100207.25
2023-05-03T15:56:50.688Z,100205.44
2023-05-03T15:59:18.866Z,100200.41
2023-05-03T16:01:47.352Z,100196.88
2023-05-03T16:04:15.407Z,100194.16
2023-05-03T16:06:43.260Z,100193.25
2023-05-03T16:09:12.474Z,100182.81
2023-05-03T16:11:40.383Z,100201.38
2023-05-03T16:14:10.614Z,100196.25
2023-05-03T16:16:38.765Z,100202.84
2023-05-03T16:19:08.786Z,100194.34
2023-05-03T16:21:36.685Z,100200.13
2023-05-03T16:24:05.023Z,100193.22
2023-05-03T16:26:34.505Z,100194.09
2023-05-03T16:29:02.411Z,100199.00
2023-05-03T16:31:32.386Z,100203.19
2023-05-03T16:34:00.328Z,100198.94
2023-05-03T16:36:28.269Z,100198.06
2023-05-03T16:38:56.171Z,100203.97
2023-05-03T16:41:24.299Z,100195.50
2023-05-03T16:43:52.676Z,100213.78
2023-05-03T16:46:21.021Z,100207.84
2023-05-03T16:48:51.900Z,100213.69
2023-05-03T16:51:21.741Z,100204.50
2023-05-03T16:53:49.713Z,100212.03
2023-05-03T16:56:17.607Z,100211.03
2023-05-03T16:58:45.554Z,100186.31
2023-05-03T17:01:13.558Z,100209.19
2023-05-03T17:03:42.659Z,100215.84
2023-05-03T17:06:12.705Z,100207.25
2023-05-03T17:08:40.818Z,100206.31
2023-05-03T17:11:09.912Z,100205.47
2023-05-03T17:13:37.815Z,100214.63
2023-05-03T17:16:08.665Z,100219.59
2023-05-03T17:18:37.660Z,100214.56
2023-05-03T17:21:05.858Z,100206.91
2023-05-03T17:23:36.234Z,100218.72
2023-05-03T17:26:05.196Z,100220.34
2023-05-03T17:28:33.513Z,100220.25
2023-05-03T17:31:02.550Z,100219.41
2023-05-03T17:33:30.752Z,100226.06
2023-05-03T17:36:00.657Z,100220.03
2023-05-03T17:38:28.760Z,100226.72
2023-05-03T17:40:58.017Z,100227.50
2023-05-03T17:43:26.228Z,100221.63
2023-05-03T17:45:54.151Z,100225.63
2023-05-03T17:48:22.179Z,100228.22
2023-05-03T17:50:58.459Z,100232.31
2023-05-03T17:53:26.507Z,100228.88
2023-05-03T17:55:54.558Z,100223.78
2023-05-03T17:58:23.818Z,100221.91
2023-05-03T18:00:52.550Z,100223.44
2023-05-03T18:03:20.777Z,100224.91
2023-05-03T18:05:49.243Z,100220.56
2023-05-03T18:08:17.174Z,100226.31
2023-05-03T18:10:45.233Z,100233.81
2023-05-03T18:13:13.530Z,100241.97
2023-05-03T18:15:42.886Z,100237.63
2023-05-03T18:18:10.764Z,100235.94
2023-05-03T18:20:38.642Z,100233.38
2023-05-03T18:23:06.534Z,100236.63
2023-05-03T18:25:34.400Z,100243.25
2023-05-03T18:28:03.226Z,100240.63
2023-05-03T18:30:32.499Z,100240.72
2023-05-03T18:33:02.186Z,100237.91
2023-05-03T18:35:30.733Z,100239.81
2023-05-03T18:37:58.639Z,100245.72
2023-05-03T18:40:26.782Z,100237.22
2023-05-03T18:42:54.640Z,100243.91
2023-05-03T18:45:22.964Z,100246.47
2023-05-03T18:47:51.174Z,100248.13
2023-05-03T18:50:20.582Z,100240.56
2023-05-03T18:52:50.466Z,100251.44
2023-05-03T18:55:18.474Z,100244.69
2023-05-03T18:57:46.439Z,100252.13
2023-05-03T19:00:17.937Z,100244.59
2023-05-03T19:02:46.189Z,100245.41
2023-05-03T19:05:15.457Z,100244.28
2023-05-03T19:07:47.073Z,100247.63
2023-05-03T19:10:16.341Z,100251.66
2023-05-03T19:12:44.766Z,100248.28
2023-05-03T19:15:12.973Z,100254.97
2023-05-03T19:17:41.832Z,100255.72
2023-05-03T19:20:12.032Z,100252.31
2023-05-03T19:22:40.088Z,100253.09
2023-05-03T19:25:10.034Z,100254.69
2023-05-03T19:27:37.852Z,100254.69
2023-05-03T19:30:07.062Z,100237.63
2023-05-03T19:32:39.236Z,100249.59
2023-05-03T19:35:09.489Z,100257.13
2023-05-03T19:37:37.498Z,100261.09
2023-05-03T19:40:07.151Z,100258.41
2023-05-03T19:42:36.663Z,100265.09
2023-05-03T19:45:04.880Z,100265.84
2023-05-03T19:47:34.018Z,100265.00
2023-05-03T19:50:02.353Z,100267.31
2023-05-03T19:52:31.622Z,100259.78
2023-05-03T19:54:59.564Z,100263.84
2023-05-03T19:57:27.405Z,100262.06
2023-05-03T19:59:56.669Z,100263.81
2023-05-03T20:02:25.249Z,100257.91
2023-05-03T20:04:53.269Z,100250.28
2023-05-03T20:07:21.282Z,100256.94
2023-05-03T20:09:49.403Z,100250.16
2023-05-03T20:12:17.449Z,100254.38
2023-05-03T20:14:46.030Z,100253.44
2023-05-03T20:17:15.878Z,100248.28
2023-05-03T20:19:43.853Z,100258.28
2023-05-03T20:22:12.293Z,100253.97
2023-05-03T20:24:40.208Z,100259.78
2023-05-03T20:27:08.148Z,100248.88
2023-05-03T20:29:36.069Z,100253.84
2023-05-03T20:32:04.002Z,100247.03
2023-05-03T20:34:33.380Z,100258.72
2023-05-03T20:37:01.330Z,100245.25
2023-05-03T20:39:29.742Z,100248.50
2023-05-03T20:41:58.290Z,100260.94
2023-05-03T20:44:26.254Z,100259.22
2023-05-03T20:46:54.175Z,100264.25
2023-05-03T20:49:22.068Z,100253.41
2023-05-03T20:51:51.317Z,100252.63
2023-05-03T20:54:19.215Z,100257.53
2023-05-03T20:56:47.038Z,100261.75
2023-05-03T20:59:14.867Z,100255.94
2023-05-03T21:01:42.783Z,100259.22
2023-05-03T21:04:10.638Z,100258.38
2023-05-03T21:06:38.626Z,100259.97
2023-05-03T21:09:07.898Z,100255.75
2023-05-03T21:11:35.716Z,100252.31
2023-05-03T21:14:03.596Z,100254.63
2023-05-03T21:16:31.793Z,100247.84
2023-05-03T21:18:59.699Z,100246.94
2023-05-03T21:21:27.622Z,100246.88
2023-05-03T21:23:55.507Z,100241.06
2023-05-03T21:26:25.046Z,100243.63
2023-05-03T21:28:52.944Z,100238.72
2023-05-03T21:31:20.969Z,100242.88
2023-05-03T21:33:48.875Z,100244.53
2023-05-03T21:36:16.981Z,100240.44
2023-05-03T21:38:44.881Z,100242.13
2023-05-03T21:41:13.638Z,100242.22
2023-05-03T21:43:43.031Z,100235.72
2023-05-03T21:46:11.149Z,100238.56
2023-05-03T21:48:40.292Z,100243.22
2023-05-03T21:51:08.539Z,100242.66
2023-05-03T21:53:36.556Z,100238.63
2023-05-03T21:56:04.694Z,100238.72
2023-05-03T21:58:32.562Z,100233.69
2023-05-03T22:01:01.834Z,100219.16
2023-05-03T22:03:29.931Z,100237.78
2023-05-03T22:05:57.871Z,100232.00
2023-05-03T22:08:25.929Z,100237.88
2023-05-03T22:10:56.079Z,100235.41
2023-05-03T22:13:23.983Z,100234.50
2023-05-03T22:15:51.924Z,100236.31
2023-05-03T22:18:21.128Z,100229.59
2023-05-03T22:20:49.024Z,100236.97
2023-05-03T22:23:17.091Z,100243.66
2023-05-03T22:25:44.988Z,100234.31
2023-05-03T22:28:12.891Z,100242.66
2023-05-03T22:30:40.806Z,100240.19
2023-05-03T22:33:08.709Z,100242.75
2023-05-03T22:35:37.968Z,100236.88
2023-05-03T22:38:06.390Z,100230.06
2023-05-03T22:40:34.495Z,100230.97
2023-05-03T22:43:02.680Z,100225.13
2023-05-03T22:45:30.670Z,100223.44
2023-05-03T22:47:58.731Z,100221.63
2023-05-03T22:50:27.058Z,100219.94
2023-05-03T22:52:56.338Z,100223.16
2023-05-03T22:55:24.231Z,100227.38
2023-05-03T22:57:52.110Z,100229.88
2023-05-03T23:00:21.634Z,100226.56
2023-05-03T23:02:49.809Z,100234.88
2023-05-03T23:05:17.738Z,100234.78
2023-05-03T23:07:45.617Z,100227.97
2023-05-03T23:10:14.789Z,100227.13
2023-05-03T23:12:42.754Z,100228.72
2023-05-03T23:15:11.913Z,100218.59
2023-05-03T23:17:40.006Z,100217.69
2023-05-03T23:20:10.074Z,100216.72
2023-05-03T23:22:40.730Z,100217.50
2023-05-03T23:25:09.664Z,100219.22
2023-05-03T23:27:38.920Z,100221.78
2023-05-03T23:30:09.042Z,100220.81
2023-05-03T23:32:37.573Z,100214.84
2023-05-03T23:35:07.371Z,100215.66
2023-05-03T23:37:35.214Z,100215.69
2023-05-03T23:40:03.739Z,100208.25
2023-05-03T23:42:31.814Z,100216.59
2023-05-03T23:45:01.071Z,100222.44
2023-05-03T23:47:29.009Z,100209.03
2023-05-03T23:49:56.951Z,100214.81
2023-05-03T23:52:24.840Z,100210.53
2023-05-03T23:54:53.410Z,100204.69
2023-05-03T23:57:21.493Z,100206.28
2023-05-03T23:59:49.359Z,100202.13
